Portada
METAR-TAF:

METAR-TAF

Aeroports :

Zagreb, Croàcia

latitud: 45-44N, longitud: 016-04E, altitud: 106 m

Observació

L'informe es va fer fa 17 minuts, a les 12:00 UTC
Vent 3 kt del Est, variant entre Nord/Nord-Est i Sud-Est
Temperatura 2°C
Humitat 93%
Pressió 1017 hPa
Visibilitat: 0600 m
boira

METAR: LDZA 071200Z 08003KT 030V130 0600 R05/1200U R23/1200U FG VV002 02/01 Q1017 NOSIG

Hora: 13:17 (12:17 UTC)

Pronòstic

L'informe es va fer fa 52 minuts, a les 11:25 UTC
Pronòstic vàlid del 07 a les 12 UTC al 08 a les 12 UTC
Vent 2 kt amb direcció variable
Visibilitat: 2000 m
Cel cobert a una alçada de 600 ft
boirina
Probabilitat 30%
l' 07 a les 12 UTC al 07 a les 16 UTC
Visibilitat: 6000 m
Núvols disperses a una alçada de 1000 ft
Probabilitat 30%
l' 07 a les 18 UTC al 08 a les 11 UTC
Visibilitat: 0200 m
a una alçada de 100 ft
boira gebradora

TAF: LDZA 071125Z 0712/0812 VRB02KT 2000 BR OVC006 TX02/0712Z TNM01/0720Z PROB30 0712/0716 6000 NSW SCT010 PROB30 0718/0811 0200 FZFG VV001

Observacions i pronòstics meteorològics de més de 4000 aeroports (METAR i TAF).

Les estacions disponibles són els punts grocs i vermells al mapa.

Posi el ratolí al punt desitjat per veure el nom de l'estació.

Feu clic per veure les observacions i els pronòstics meteorològics.

Per canviar el mapa: feu clic els botons verds amb una creu de color negre per apropar; al botó verd amb un guió per allunyar la imatge; o en les fletxes verdes per a mapes adjacents.


METAR-TAF: